sensor_id;sensor_type;location;lat;lon;timestamp;temperature;humidity
17639;DHT22;8938;53.546;9.954;2023-01-29T00:01:21;6.80;99.90
17639;DHT22;8938;53.546;9.954;2023-01-29T00:03:49;6.70;99.90
17639;DHT22;8938;53.546;9.954;2023-01-29T00:06:15;6.70;99.90
17639;DHT22;8938;53.546;9.954;2023-01-29T00:08:41;6.60;99.90
17639;DHT22;8938;53.546;9.954;2023-01-29T00:11:07;6.70;99.90
17639;DHT22;8938;53.546;9.954;2023-01-29T00:13:33;6.70;99.90
17639;DHT22;8938;53.546;9.954;2023-01-29T00:15:59;6.70;99.90
17639;DHT22;8938;53.546;9.954;2023-01-29T00:18:26;6.80;99.90
17639;DHT22;8938;53.546;9.954;2023-01-29T00:20:52;6.90;99.90
17639;DHT22;8938;53.546;9.954;2023-01-29T00:23:18;6.90;99.90
17639;DHT22;8938;53.546;9.954;2023-01-29T00:25:44;6.90;99.90
17639;DHT22;8938;53.546;9.954;2023-01-29T00:28:10;6.90;99.90
17639;DHT22;8938;53.546;9.954;2023-01-29T00:30:36;6.90;99.90
17639;DHT22;8938;53.546;9.954;2023-01-29T00:33:02;6.80;99.90
17639;DHT22;8938;53.546;9.954;2023-01-29T00:35:28;6.80;99.90
17639;DHT22;8938;53.546;9.954;2023-01-29T00:37:54;6.70;99.90
17639;DHT22;8938;53.546;9.954;2023-01-29T00:40:20;6.70;99.90
17639;DHT22;8938;53.546;9.954;2023-01-29T00:42:47;6.60;99.90
17639;DHT22;8938;53.546;9.954;2023-01-29T00:45:31;6.60;99.90
17639;DHT22;8938;53.546;9.954;2023-01-29T00:47:57;6.60;99.90
17639;DHT22;8938;53.546;9.954;2023-01-29T00:50:22;6.70;99.90
17639;DHT22;8938;53.546;9.954;2023-01-29T00:52:48;6.70;99.90
17639;DHT22;8938;53.546;9.954;2023-01-29T00:55:16;6.80;99.90
17639;DHT22;8938;53.546;9.954;2023-01-29T00:57:42;6.70;99.90
17639;DHT22;8938;53.546;9.954;2023-01-29T01:00:10;6.70;99.90
17639;DHT22;8938;53.546;9.954;2023-01-29T01:02:37;6.70;99.90
17639;DHT22;8938;53.546;9.954;2023-01-29T01:05:21;6.80;99.90
17639;DHT22;8938;53.546;9.954;2023-01-29T01:07:52;6.90;99.90
17639;DHT22;8938;53.546;9.954;2023-01-29T01:10:21;6.90;99.90
17639;DHT22;8938;53.546;9.954;2023-01-29T01:12:59;6.90;99.90
17639;DHT22;8938;53.546;9.954;2023-01-29T01:15:27;6.90;99.90
17639;DHT22;8938;53.546;9.954;2023-01-29T01:17:54;6.90;99.90
17639;DHT22;8938;53.546;9.954;2023-01-29T01:20:20;7.00;99.90
17639;DHT22;8938;53.546;9.954;2023-01-29T01:22:46;7.00;99.90
17639;DHT22;8938;53.546;9.954;2023-01-29T01:25:11;7.10;99.90
17639;DHT22;8938;53.546;9.954;2023-01-29T01:27:37;7.00;99.90
17639;DHT22;8938;53.546;9.954;2023-01-29T01:30:11;7.00;99.90
17639;DHT22;8938;53.546;9.954;2023-01-29T01:32:37;7.00;99.90
17639;DHT22;8938;53.546;9.954;2023-01-29T01:35:03;7.10;99.90
17639;DHT22;8938;53.546;9.954;2023-01-29T01:37:29;7.20;99.90
17639;DHT22;8938;53.546;9.954;2023-01-29T01:39:54;7.10;99.90
17639;DHT22;8938;53.546;9.954;2023-01-29T01:42:26;7.10;99.90
17639;DHT22;8938;53.546;9.954;2023-01-29T01:45:00;7.20;99.90
17639;DHT22;8938;53.546;9.954;2023-01-29T01:52:39;7.20;99.90
17639;DHT22;8938;53.546;9.954;2023-01-29T01:55:07;7.20;99.90
17639;DHT22;8938;53.546;9.954;2023-01-29T01:57:34;7.10;99.90
17639;DHT22;8938;53.546;9.954;2023-01-29T02:00:06;7.10;99.90
17639;DHT22;8938;53.546;9.954;2023-01-29T02:02:41;7.00;99.90
17639;DHT22;8938;53.546;9.954;2023-01-29T02:05:26;6.90;99.90
17639;DHT22;8938;53.546;9.954;2023-01-29T02:08:12;7.00;99.90
17639;DHT22;8938;53.546;9.954;2023-01-29T02:10:57;7.00;99.90
17639;DHT22;8938;53.546;9.954;2023-01-29T02:13:23;7.00;99.90
17639;DHT22;8938;53.546;9.954;2023-01-29T02:15:48;7.00;99.90
17639;DHT22;8938;53.546;9.954;2023-01-29T02:18:17;7.00;99.90
17639;DHT22;8938;53.546;9.954;2023-01-29T02:21:28;7.10;99.90
17639;DHT22;8938;53.546;9.954;2023-01-29T02:26:38;7.20;99.90
17639;DHT22;8938;53.546;9.954;2023-01-29T02:29:09;7.20;99.90
17639;DHT22;8938;53.546;9.954;2023-01-29T02:37:35;7.10;99.90
17639;DHT22;8938;53.546;9.954;2023-01-29T02:40:22;7.10;99.90
17639;DHT22;8938;53.546;9.954;2023-01-29T02:43:07;7.10;99.90
17639;DHT22;8938;53.546;9.954;2023-01-29T02:45:44;7.10;99.90
17639;DHT22;8938;53.546;9.954;2023-01-29T02:48:18;7.10;99.90
17639;DHT22;8938;53.546;9.954;2023-01-29T02:51:07;7.10;99.90
17639;DHT22;8938;53.546;9.954;2023-01-29T02:53:39;7.00;99.90
17639;DHT22;8938;53.546;9.954;2023-01-29T02:56:12;7.00;99.90
17639;DHT22;8938;53.546;9.954;2023-01-29T02:58:46;7.10;99.90
17639;DHT22;8938;53.546;9.954;2023-01-29T03:01:22;7.10;99.90
17639;DHT22;8938;53.546;9.954;2023-01-29T03:03:52;7.20;99.90
17639;DHT22;8938;53.546;9.954;2023-01-29T03:06:26;7.10;99.90
17639;DHT22;8938;53.546;9.954;2023-01-29T03:08:59;7.20;99.90
17639;DHT22;8938;53.546;9.954;2023-01-29T03:11:33;7.30;99.90
17639;DHT22;8938;53.546;9.954;2023-01-29T03:14:10;7.20;99.90
17639;DHT22;8938;53.546;9.954;2023-01-29T03:16:49;7.30;99.90
17639;DHT22;8938;53.546;9.954;2023-01-29T03:19:22;7.20;99.90
17639;DHT22;8938;53.546;9.954;2023-01-29T03:21:54;7.30;99.90
17639;DHT22;8938;53.546;9.954;2023-01-29T03:27:32;7.20;99.90
17639;DHT22;8938;53.546;9.954;2023-01-29T03:30:18;7.20;99.90
17639;DHT22;8938;53.546;9.954;2023-01-29T03:33:06;7.20;99.90
17639;DHT22;8938;53.546;9.954;2023-01-29T03:35:37;7.20;99.90
17639;DHT22;8938;53.546;9.954;2023-01-29T03:38:06;7.20;99.90
17639;DHT22;8938;53.546;9.954;2023-01-29T03:40:49;7.20;99.90
17639;DHT22;8938;53.546;9.954;2023-01-29T03:43:24;7.20;99.90
17639;DHT22;8938;53.546;9.954;2023-01-29T03:46:23;7.10;99.90
17639;DHT22;8938;53.546;9.954;2023-01-29T03:48:59;7.00;99.90
17639;DHT22;8938;53.546;9.954;2023-01-29T03:51:52;7.00;99.90
17639;DHT22;8938;53.546;9.954;2023-01-29T03:54:30;7.00;99.90
17639;DHT22;8938;53.546;9.954;2023-01-29T03:57:01;7.00;99.90
17639;DHT22;8938;53.546;9.954;2023-01-29T03:59:35;7.00;99.90
17639;DHT22;8938;53.546;9.954;2023-01-29T04:02:15;6.90;99.90
17639;DHT22;8938;53.546;9.954;2023-01-29T04:04:45;6.90;99.90
17639;DHT22;8938;53.546;9.954;2023-01-29T04:07:17;6.90;99.90
17639;DHT22;8938;53.546;9.954;2023-01-29T04:09:57;6.90;99.90
17639;DHT22;8938;53.546;9.954;2023-01-29T04:12:28;6.80;99.90
17639;DHT22;8938;53.546;9.954;2023-01-29T04:14:57;6.90;99.90
17639;DHT22;8938;53.546;9.954;2023-01-29T04:17:29;6.90;99.90
17639;DHT22;8938;53.546;9.954;2023-01-29T04:19:58;7.00;99.90
17639;DHT22;8938;53.546;9.954;2023-01-29T04:22:33;7.00;99.90
17639;DHT22;8938;53.546;9.954;2023-01-29T04:25:09;7.10;99.90
17639;DHT22;8938;53.546;9.954;2023-01-29T04:28:03;7.10;99.90
17639;DHT22;8938;53.546;9.954;2023-01-29T04:30:51;7.20;99.90
17639;DHT22;8938;53.546;9.954;2023-01-29T04:33:25;7.20;99.90
17639;DHT22;8938;53.546;9.954;2023-01-29T04:36:03;7.20;99.90
17639;DHT22;8938;53.546;9.954;2023-01-29T04:39:14;7.10;99.90
17639;DHT22;8938;53.546;9.954;2023-01-29T04:44:37;7.00;99.90
17639;DHT22;8938;53.546;9.954;2023-01-29T04:47:17;7.00;99.90
17639;DHT22;8938;53.546;9.954;2023-01-29T04:49:45;6.90;99.90
17639;DHT22;8938;53.546;9.954;2023-01-29T04:52:43;6.80;99.90
17639;DHT22;8938;53.546;9.954;2023-01-29T04:57:52;6.90;99.90
17639;DHT22;8938;53.546;9.954;2023-01-29T05:00:27;7.00;99.90
17639;DHT22;8938;53.546;9.954;2023-01-29T05:02:55;7.00;99.90
17639;DHT22;8938;53.546;9.954;2023-01-29T05:05:21;7.00;99.90
17639;DHT22;8938;53.546;9.954;2023-01-29T05:07:47;7.00;99.90
17639;DHT22;8938;53.546;9.954;2023-01-29T05:10:15;7.00;99.90
17639;DHT22;8938;53.546;9.954;2023-01-29T05:12:44;7.00;99.90
17639;DHT22;8938;53.546;9.954;2023-01-29T05:15:13;6.90;99.90
17639;DHT22;8938;53.546;9.954;2023-01-29T05:17:41;7.00;99.90
17639;DHT22;8938;53.546;9.954;2023-01-29T05:20:08;7.10;99.90
17639;DHT22;8938;53.546;9.954;2023-01-29T05:22:37;7.10;99.90
17639;DHT22;8938;53.546;9.954;2023-01-29T05:25:21;7.10;99.90
17639;DHT22;8938;53.546;9.954;2023-01-29T05:27:48;7.10;99.90
17639;DHT22;8938;53.546;9.954;2023-01-29T05:30:51;7.10;99.90
17639;DHT22;8938;53.546;9.954;2023-01-29T05:33:29;7.00;99.90
17639;DHT22;8938;53.546;9.954;2023-01-29T05:35:57;7.10;99.90
17639;DHT22;8938;53.546;9.954;2023-01-29T05:38:25;7.00;99.90
17639;DHT22;8938;53.546;9.954;2023-01-29T05:40:50;6.90;99.90
17639;DHT22;8938;53.546;9.954;2023-01-29T05:43:17;6.90;99.90
17639;DHT22;8938;53.546;9.954;2023-01-29T05:48:18;6.60;99.90
17639;DHT22;8938;53.546;9.954;2023-01-29T05:50:44;6.50;99.90
17639;DHT22;8938;53.546;9.954;2023-01-29T05:53:10;6.50;99.90
17639;DHT22;8938;53.546;9.954;2023-01-29T05:55:35;6.50;99.90
17639;DHT22;8938;53.546;9.954;2023-01-29T05:58:01;6.60;99.90
17639;DHT22;8938;53.546;9.954;2023-01-29T06:00:26;6.70;99.90
17639;DHT22;8938;53.546;9.954;2023-01-29T06:02:52;6.80;99.90
17639;DHT22;8938;53.546;9.954;2023-01-29T06:05:18;6.90;99.90
17639;DHT22;8938;53.546;9.954;2023-01-29T06:07:43;6.90;99.90
17639;DHT22;8938;53.546;9.954;2023-01-29T06:10:14;6.90;99.90
17639;DHT22;8938;53.546;9.954;2023-01-29T06:12:41;6.80;99.90
17639;DHT22;8938;53.546;9.954;2023-01-29T06:15:07;6.70;99.90
17639;DHT22;8938;53.546;9.954;2023-01-29T06:17:32;6.70;99.90
17639;DHT22;8938;53.546;9.954;2023-01-29T06:19:58;6.60;99.90
17639;DHT22;8938;53.546;9.954;2023-01-29T06:22:23;6.70;99.90
17639;DHT22;8938;53.546;9.954;2023-01-29T06:24:49;6.70;99.90
17639;DHT22;8938;53.546;9.954;2023-01-29T06:27:14;6.70;99.90
17639;DHT22;8938;53.546;9.954;2023-01-29T06:29:40;6.70;99.90
17639;DHT22;8938;53.546;9.954;2023-01-29T06:32:06;6.70;99.90
17639;DHT22;8938;53.546;9.954;2023-01-29T06:34:31;6.90;99.90
17639;DHT22;8938;53.546;9.954;2023-01-29T06:36:57;7.00;99.90
17639;DHT22;8938;53.546;9.954;2023-01-29T06:39:22;7.00;99.90
17639;DHT22;8938;53.546;9.954;2023-01-29T06:41:47;7.00;99.90
17639;DHT22;8938;53.546;9.954;2023-01-29T06:44:13;7.00;99.90
17639;DHT22;8938;53.546;9.954;2023-01-29T06:46:39;7.00;99.90
17639;DHT22;8938;53.546;9.954;2023-01-29T06:49:04;7.00;99.90
17639;DHT22;8938;53.546;9.954;2023-01-29T06:51:30;7.10;99.90
17639;DHT22;8938;53.546;9.954;2023-01-29T06:53:55;7.00;99.90
17639;DHT22;8938;53.546;9.954;2023-01-29T06:56:22;7.10;99.90
17639;DHT22;8938;53.546;9.954;2023-01-29T06:58:48;7.10;99.90
17639;DHT22;8938;53.546;9.954;2023-01-29T07:01:14;7.10;99.90
17639;DHT22;8938;53.546;9.954;2023-01-29T07:03:39;7.10;99.90
17639;DHT22;8938;53.546;9.954;2023-01-29T07:06:09;7.20;99.90
17639;DHT22;8938;53.546;9.954;2023-01-29T07:08:36;7.30;99.90
17639;DHT22;8938;53.546;9.954;2023-01-29T07:11:02;7.30;99.90
17639;DHT22;8938;53.546;9.954;2023-01-29T07:13:28;7.40;99.90
17639;DHT22;8938;53.546;9.954;2023-01-29T07:15:57;7.50;99.90
17639;DHT22;8938;53.546;9.954;2023-01-29T07:18:23;7.50;99.90
17639;DHT22;8938;53.546;9.954;2023-01-29T07:20:49;7.50;99.90
17639;DHT22;8938;53.546;9.954;2023-01-29T07:23:15;7.50;99.90
17639;DHT22;8938;53.546;9.954;2023-01-29T07:25:41;7.50;99.90
17639;DHT22;8938;53.546;9.954;2023-01-29T07:28:07;7.20;99.90
17639;DHT22;8938;53.546;9.954;2023-01-29T07:30:33;7.20;99.90
17639;DHT22;8938;53.546;9.954;2023-01-29T07:33:06;7.10;99.90
17639;DHT22;8938;53.546;9.954;2023-01-29T07:35:36;7.10;99.90
17639;DHT22;8938;53.546;9.954;2023-01-29T07:38:03;7.00;99.90
17639;DHT22;8938;53.546;9.954;2023-01-29T07:40:28;7.00;99.90
17639;DHT22;8938;53.546;9.954;2023-01-29T07:43:02;6.90;99.90
17639;DHT22;8938;53.546;9.954;2023-01-29T07:45:28;6.90;99.90
17639;DHT22;8938;53.546;9.954;2023-01-29T07:47:55;6.90;99.90
17639;DHT22;8938;53.546;9.954;2023-01-29T07:50:22;6.80;99.90
17639;DHT22;8938;53.546;9.954;2023-01-29T07:52:48;6.90;99.90
17639;DHT22;8938;53.546;9.954;2023-01-29T07:55:13;6.80;99.90
17639;DHT22;8938;53.546;9.954;2023-01-29T07:57:40;6.80;99.90
17639;DHT22;8938;53.546;9.954;2023-01-29T08:00:06;6.80;99.90
17639;DHT22;8938;53.546;9.954;2023-01-29T08:02:32;6.80;99.90
17639;DHT22;8938;53.546;9.954;2023-01-29T08:04:57;6.80;99.90
17639;DHT22;8938;53.546;9.954;2023-01-29T08:07:23;6.70;99.90
17639;DHT22;8938;53.546;9.954;2023-01-29T08:09:48;6.70;99.90
17639;DHT22;8938;53.546;9.954;2023-01-29T08:12:14;6.60;99.90
17639;DHT22;8938;53.546;9.954;2023-01-29T08:14:40;6.70;99.90
17639;DHT22;8938;53.546;9.954;2023-01-29T08:17:05;6.70;99.90
17639;DHT22;8938;53.546;9.954;2023-01-29T08:19:31;6.70;99.90
17639;DHT22;8938;53.546;9.954;2023-01-29T08:21:56;6.70;99.90
17639;DHT22;8938;53.546;9.954;2023-01-29T08:24:22;6.80;99.90
17639;DHT22;8938;53.546;9.954;2023-01-29T08:26:47;6.80;99.90
17639;DHT22;8938;53.546;9.954;2023-01-29T08:29:13;6.80;99.90
17639;DHT22;8938;53.546;9.954;2023-01-29T08:31:38;6.90;99.90
17639;DHT22;8938;53.546;9.954;2023-01-29T08:34:04;6.80;99.90
17639;DHT22;8938;53.546;9.954;2023-01-29T08:36:29;6.80;99.90
17639;DHT22;8938;53.546;9.954;2023-01-29T08:38:55;6.80;99.90
17639;DHT22;8938;53.546;9.954;2023-01-29T08:41:20;6.80;99.90
17639;DHT22;8938;53.546;9.954;2023-01-29T08:43:46;6.80;99.90
17639;DHT22;8938;53.546;9.954;2023-01-29T08:46:11;6.80;99.90
17639;DHT22;8938;53.546;9.954;2023-01-29T08:48:37;6.90;99.90
17639;DHT22;8938;53.546;9.954;2023-01-29T08:51:03;6.90;99.90
17639;DHT22;8938;53.546;9.954;2023-01-29T08:53:30;6.90;99.90
17639;DHT22;8938;53.546;9.954;2023-01-29T08:55:55;7.00;99.90
17639;DHT22;8938;53.546;9.954;2023-01-29T08:58:21;6.90;99.90
17639;DHT22;8938;53.546;9.954;2023-01-29T09:00:46;6.90;99.90
17639;DHT22;8938;53.546;9.954;2023-01-29T09:03:12;7.00;99.90
17639;DHT22;8938;53.546;9.954;2023-01-29T09:05:38;7.00;99.90
17639;DHT22;8938;53.546;9.954;2023-01-29T09:08:05;6.90;99.90
17639;DHT22;8938;53.546;9.954;2023-01-29T09:10:31;6.90;99.90
17639;DHT22;8938;53.546;9.954;2023-01-29T09:12:56;6.80;99.90
17639;DHT22;8938;53.546;9.954;2023-01-29T09:15:22;6.90;99.90
17639;DHT22;8938;53.546;9.954;2023-01-29T09:17:48;7.00;99.90
17639;DHT22;8938;53.546;9.954;2023-01-29T09:20:14;7.10;99.90
17639;DHT22;8938;53.546;9.954;2023-01-29T09:22:40;7.10;99.90
17639;DHT22;8938;53.546;9.954;2023-01-29T09:25:06;7.20;99.90
17639;DHT22;8938;53.546;9.954;2023-01-29T09:27:32;7.10;99.90
17639;DHT22;8938;53.546;9.954;2023-01-29T09:29:58;7.10;99.90
17639;DHT22;8938;53.546;9.954;2023-01-29T09:32:23;7.10;99.90
17639;DHT22;8938;53.546;9.954;2023-01-29T09:34:49;7.10;99.90
17639;DHT22;8938;53.546;9.954;2023-01-29T09:37:15;7.00;99.90
17639;DHT22;8938;53.546;9.954;2023-01-29T09:39:42;7.00;99.90
17639;DHT22;8938;53.546;9.954;2023-01-29T09:42:23;6.90;99.90
17639;DHT22;8938;53.546;9.954;2023-01-29T09:45:08;6.90;99.90
17639;DHT22;8938;53.546;9.954;2023-01-29T09:47:37;6.90;99.90
17639;DHT22;8938;53.546;9.954;2023-01-29T09:55:25;6.80;99.90
17639;DHT22;8938;53.546;9.954;2023-01-29T09:57:55;6.80;99.90
17639;DHT22;8938;53.546;9.954;2023-01-29T10:03:15;6.90;99.90
17639;DHT22;8938;53.546;9.954;2023-01-29T10:13:51;7.10;99.90
17639;DHT22;8938;53.546;9.954;2023-01-29T10:16:39;7.10;99.90
17639;DHT22;8938;53.546;9.954;2023-01-29T10:19:35;7.10;99.90
17639;DHT22;8938;53.546;9.954;2023-01-29T10:24:40;7.10;99.90
17639;DHT22;8938;53.546;9.954;2023-01-29T10:27:13;7.10;99.90
17639;DHT22;8938;53.546;9.954;2023-01-29T10:29:41;7.10;99.90
17639;DHT22;8938;53.546;9.954;2023-01-29T10:32:13;7.10;99.90
17639;DHT22;8938;53.546;9.954;2023-01-29T10:35:12;7.00;99.90
17639;DHT22;8938;53.546;9.954;2023-01-29T10:37:42;7.10;99.90
17639;DHT22;8938;53.546;9.954;2023-01-29T10:40:20;7.10;99.90
17639;DHT22;8938;53.546;9.954;2023-01-29T10:42:54;7.10;99.90
17639;DHT22;8938;53.546;9.954;2023-01-29T10:45:28;7.20;99.90
17639;DHT22;8938;53.546;9.954;2023-01-29T10:48:31;7.30;99.90
17639;DHT22;8938;53.546;9.954;2023-01-29T10:54:07;7.40;99.90
17639;DHT22;8938;53.546;9.954;2023-01-29T10:57:00;7.40;99.90
17639;DHT22;8938;53.546;9.954;2023-01-29T10:59:35;7.40;99.90
17639;DHT22;8938;53.546;9.954;2023-01-29T11:02:16;7.40;99.90
17639;DHT22;8938;53.546;9.954;2023-01-29T11:04:42;7.50;99.90
17639;DHT22;8938;53.546;9.954;2023-01-29T11:07:08;7.50;99.90
17639;DHT22;8938;53.546;9.954;2023-01-29T11:09:40;7.50;99.90
17639;DHT22;8938;53.546;9.954;2023-01-29T11:12:15;7.50;99.90
17639;DHT22;8938;53.546;9.954;2023-01-29T11:14:49;7.60;99.90
17639;DHT22;8938;53.546;9.954;2023-01-29T11:17:25;7.50;99.90
17639;DHT22;8938;53.546;9.954;2023-01-29T11:19:53;7.50;99.90
17639;DHT22;8938;53.546;9.954;2023-01-29T11:22:26;7.50;99.90
17639;DHT22;8938;53.546;9.954;2023-01-29T11:25:18;7.50;99.90
17639;DHT22;8938;53.546;9.954;2023-01-29T11:27:46;7.60;99.90
17639;DHT22;8938;53.546;9.954;2023-01-29T11:35:29;7.60;99.90
17639;DHT22;8938;53.546;9.954;2023-01-29T11:40:41;7.70;99.90
17639;DHT22;8938;53.546;9.954;2023-01-29T11:45:39;7.80;99.90
17639;DHT22;8938;53.546;9.954;2023-01-29T11:48:16;7.80;99.90
17639;DHT22;8938;53.546;9.954;2023-01-29T11:50:42;7.70;99.90
17639;DHT22;8938;53.546;9.954;2023-01-29T11:53:36;7.70;99.90
17639;DHT22;8938;53.546;9.954;2023-01-29T11:56:18;7.80;99.90
17639;DHT22;8938;53.546;9.954;2023-01-29T11:58:46;7.70;99.90
17639;DHT22;8938;53.546;9.954;2023-01-29T12:01:16;7.60;99.90
17639;DHT22;8938;53.546;9.954;2023-01-29T12:03:47;7.70;99.90
17639;DHT22;8938;53.546;9.954;2023-01-29T12:06:27;7.70;99.90
17639;DHT22;8938;53.546;9.954;2023-01-29T12:09:00;7.60;99.90
17639;DHT22;8938;53.546;9.954;2023-01-29T12:11:31;7.60;99.90
17639;DHT22;8938;53.546;9.954;2023-01-29T12:14:02;7.70;99.90
17639;DHT22;8938;53.546;9.954;2023-01-29T12:16:38;7.60;99.90
17639;DHT22;8938;53.546;9.954;2023-01-29T12:19:30;7.70;99.90
17639;DHT22;8938;53.546;9.954;2023-01-29T12:22:03;7.70;99.90
17639;DHT22;8938;53.546;9.954;2023-01-29T12:24:56;7.70;99.90
17639;DHT22;8938;53.546;9.954;2023-01-29T12:27:47;7.80;99.90
17639;DHT22;8938;53.546;9.954;2023-01-29T12:30:22;7.70;99.90
17639;DHT22;8938;53.546;9.954;2023-01-29T12:33:03;7.70;99.90
17639;DHT22;8938;53.546;9.954;2023-01-29T12:35:37;7.60;99.90
17639;DHT22;8938;53.546;9.954;2023-01-29T12:38:16;7.60;99.90
17639;DHT22;8938;53.546;9.954;2023-01-29T12:40:53;7.50;99.90
17639;DHT22;8938;53.546;9.954;2023-01-29T12:43:29;7.50;99.90
17639;DHT22;8938;53.546;9.954;2023-01-29T12:45:57;7.60;99.90
17639;DHT22;8938;53.546;9.954;2023-01-29T12:48:31;7.50;99.90
17639;DHT22;8938;53.546;9.954;2023-01-29T12:51:08;7.60;99.90
17639;DHT22;8938;53.546;9.954;2023-01-29T12:53:38;7.70;99.90
17639;DHT22;8938;53.546;9.954;2023-01-29T12:56:12;7.70;99.90
17639;DHT22;8938;53.546;9.954;2023-01-29T12:58:46;7.80;99.90
17639;DHT22;8938;53.546;9.954;2023-01-29T13:01:22;7.70;99.90
17639;DHT22;8938;53.546;9.954;2023-01-29T13:06:29;7.70;99.90
17639;DHT22;8938;53.546;9.954;2023-01-29T13:09:00;7.80;99.90
17639;DHT22;8938;53.546;9.954;2023-01-29T13:11:34;7.90;99.90
17639;DHT22;8938;53.546;9.954;2023-01-29T13:14:24;8.00;99.90
17639;DHT22;8938;53.546;9.954;2023-01-29T13:17:01;7.90;99.90
17639;DHT22;8938;53.546;9.954;2023-01-29T13:19:32;7.80;99.90
17639;DHT22;8938;53.546;9.954;2023-01-29T13:22:00;7.70;99.90
17639;DHT22;8938;53.546;9.954;2023-01-29T13:24:32;7.70;99.90
17639;DHT22;8938;53.546;9.954;2023-01-29T13:26:59;7.70;99.90
17639;DHT22;8938;53.546;9.954;2023-01-29T13:29:28;7.60;99.90
17639;DHT22;8938;53.546;9.954;2023-01-29T13:31:56;7.60;99.90
17639;DHT22;8938;53.546;9.954;2023-01-29T13:34:28;7.70;99.90
17639;DHT22;8938;53.546;9.954;2023-01-29T13:39:50;7.80;99.90
17639;DHT22;8938;53.546;9.954;2023-01-29T13:45:05;7.80;99.90
17639;DHT22;8938;53.546;9.954;2023-01-29T13:47:35;7.80;99.90
17639;DHT22;8938;53.546;9.954;2023-01-29T13:53:24;7.90;99.90
17639;DHT22;8938;53.546;9.954;2023-01-29T13:55:51;8.00;99.90
17639;DHT22;8938;53.546;9.954;2023-01-29T14:00:59;8.00;99.90
17639;DHT22;8938;53.546;9.954;2023-01-29T14:13:48;7.90;99.90
17639;DHT22;8938;53.546;9.954;2023-01-29T14:18:52;7.90;99.90
17639;DHT22;8938;53.546;9.954;2023-01-29T14:21:23;7.90;99.90
17639;DHT22;8938;53.546;9.954;2023-01-29T14:23:54;7.90;99.90
17639;DHT22;8938;53.546;9.954;2023-01-29T14:34:27;7.80;99.90
17639;DHT22;8938;53.546;9.954;2023-01-29T14:37:02;7.80;99.90
17639;DHT22;8938;53.546;9.954;2023-01-29T14:41:54;7.70;99.90
17639;DHT22;8938;53.546;9.954;2023-01-29T14:50:02;7.80;99.90
17639;DHT22;8938;53.546;9.954;2023-01-29T14:52:44;7.80;99.90
17639;DHT22;8938;53.546;9.954;2023-01-29T14:55:36;7.90;99.90
17639;DHT22;8938;53.546;9.954;2023-01-29T14:58:02;7.80;99.90
17639;DHT22;8938;53.546;9.954;2023-01-29T15:00:39;7.70;99.90
17639;DHT22;8938;53.546;9.954;2023-01-29T15:03:14;7.70;99.90
17639;DHT22;8938;53.546;9.954;2023-01-29T15:05:42;7.80;99.90
17639;DHT22;8938;53.546;9.954;2023-01-29T15:08:46;7.70;99.90
17639;DHT22;8938;53.546;9.954;2023-01-29T15:11:21;7.50;99.90
17639;DHT22;8938;53.546;9.954;2023-01-29T15:14:16;7.50;99.90
17639;DHT22;8938;53.546;9.954;2023-01-29T15:19:31;7.60;99.90
17639;DHT22;8938;53.546;9.954;2023-01-29T15:24:31;7.80;99.90
17639;DHT22;8938;53.546;9.954;2023-01-29T15:26:56;7.80;99.90
17639;DHT22;8938;53.546;9.954;2023-01-29T15:29:24;7.80;99.90
17639;DHT22;8938;53.546;9.954;2023-01-29T15:31:50;7.80;99.90
17639;DHT22;8938;53.546;9.954;2023-01-29T15:34:16;7.80;99.90
17639;DHT22;8938;53.546;9.954;2023-01-29T15:36:42;7.80;99.90
17639;DHT22;8938;53.546;9.954;2023-01-29T15:39:19;7.90;99.90
17639;DHT22;8938;53.546;9.954;2023-01-29T15:41:47;7.90;99.90
17639;DHT22;8938;53.546;9.954;2023-01-29T15:44:15;7.90;99.90
17639;DHT22;8938;53.546;9.954;2023-01-29T15:46:42;7.80;99.90
17639;DHT22;8938;53.546;9.954;2023-01-29T15:49:16;7.80;99.90
17639;DHT22;8938;53.546;9.954;2023-01-29T15:51:45;7.90;99.90
17639;DHT22;8938;53.546;9.954;2023-01-29T15:54:14;7.90;99.90
17639;DHT22;8938;53.546;9.954;2023-01-29T15:56:43;7.90;99.90
17639;DHT22;8938;53.546;9.954;2023-01-29T15:59:18;7.80;99.90
17639;DHT22;8938;53.546;9.954;2023-01-29T16:01:45;7.70;99.90
17639;DHT22;8938;53.546;9.954;2023-01-29T16:04:15;7.70;99.90
17639;DHT22;8938;53.546;9.954;2023-01-29T16:06:42;7.60;99.90
17639;DHT22;8938;53.546;9.954;2023-01-29T16:09:16;7.60;99.90
17639;DHT22;8938;53.546;9.954;2023-01-29T16:11:42;7.50;99.90
17639;DHT22;8938;53.546;9.954;2023-01-29T16:14:12;7.60;99.90
17639;DHT22;8938;53.546;9.954;2023-01-29T16:16:38;7.60;99.90
17639;DHT22;8938;53.546;9.954;2023-01-29T16:19:23;7.50;99.90
17639;DHT22;8938;53.546;9.954;2023-01-29T16:21:56;7.50;99.90
17639;DHT22;8938;53.546;9.954;2023-01-29T16:24:22;7.50;99.90
17639;DHT22;8938;53.546;9.954;2023-01-29T16:26:50;7.60;99.90
17639;DHT22;8938;53.546;9.954;2023-01-29T16:29:20;7.50;99.90
17639;DHT22;8938;53.546;9.954;2023-01-29T16:31:50;7.40;99.90
17639;DHT22;8938;53.546;9.954;2023-01-29T16:34:25;7.50;99.90
17639;DHT22;8938;53.546;9.954;2023-01-29T16:36:52;7.50;99.90
17639;DHT22;8938;53.546;9.954;2023-01-29T16:39:22;7.50;99.90
17639;DHT22;8938;53.546;9.954;2023-01-29T16:44:35;7.50;99.90
17639;DHT22;8938;53.546;9.954;2023-01-29T16:47:12;7.50;99.90
17639;DHT22;8938;53.546;9.954;2023-01-29T16:52:18;7.50;99.90
17639;DHT22;8938;53.546;9.954;2023-01-29T16:54:44;7.50;99.90
17639;DHT22;8938;53.546;9.954;2023-01-29T16:57:15;7.40;99.90
17639;DHT22;8938;53.546;9.954;2023-01-29T16:59:42;7.40;99.90
17639;DHT22;8938;53.546;9.954;2023-01-29T17:02:29;7.40;99.90
17639;DHT22;8938;53.546;9.954;2023-01-29T17:05:00;7.50;99.90
17639;DHT22;8938;53.546;9.954;2023-01-29T17:07:28;7.50;99.90
17639;DHT22;8938;53.546;9.954;2023-01-29T17:09:56;7.60;99.90
17639;DHT22;8938;53.546;9.954;2023-01-29T17:12:24;7.50;99.90
17639;DHT22;8938;53.546;9.954;2023-01-29T17:15:02;7.50;99.90
17639;DHT22;8938;53.546;9.954;2023-01-29T17:17:33;7.40;99.90
17639;DHT22;8938;53.546;9.954;2023-01-29T17:20:14;7.50;99.90
17639;DHT22;8938;53.546;9.954;2023-01-29T17:22:40;7.40;99.90
17639;DHT22;8938;53.546;9.954;2023-01-29T17:25:06;7.30;99.90
17639;DHT22;8938;53.546;9.954;2023-01-29T17:27:31;7.40;99.90
17639;DHT22;8938;53.546;9.954;2023-01-29T17:29:57;7.40;99.90
17639;DHT22;8938;53.546;9.954;2023-01-29T17:32:24;7.30;99.90
17639;DHT22;8938;53.546;9.954;2023-01-29T17:34:52;7.30;99.90
17639;DHT22;8938;53.546;9.954;2023-01-29T17:37:17;7.30;99.90
17639;DHT22;8938;53.546;9.954;2023-01-29T17:39:46;7.20;99.90
17639;DHT22;8938;53.546;9.954;2023-01-29T17:42:13;7.30;99.90
17639;DHT22;8938;53.546;9.954;2023-01-29T17:44:41;7.20;99.90
17639;DHT22;8938;53.546;9.954;2023-01-29T17:47:11;7.30;99.90
17639;DHT22;8938;53.546;9.954;2023-01-29T17:49:38;7.30;99.90
17639;DHT22;8938;53.546;9.954;2023-01-29T17:52:04;7.20;99.90
17639;DHT22;8938;53.546;9.954;2023-01-29T17:54:29;7.20;99.90
17639;DHT22;8938;53.546;9.954;2023-01-29T17:56:55;7.10;99.90
17639;DHT22;8938;53.546;9.954;2023-01-29T17:59:23;7.10;99.90
17639;DHT22;8938;53.546;9.954;2023-01-29T18:01:49;7.10;99.90
17639;DHT22;8938;53.546;9.954;2023-01-29T18:04:16;7.10;99.90
17639;DHT22;8938;53.546;9.954;2023-01-29T18:06:42;7.00;99.90
17639;DHT22;8938;53.546;9.954;2023-01-29T18:09:15;7.00;99.90
17639;DHT22;8938;53.546;9.954;2023-01-29T18:11:41;7.00;99.90
17639;DHT22;8938;53.546;9.954;2023-01-29T18:14:08;7.00;99.90
17639;DHT22;8938;53.546;9.954;2023-01-29T18:16:34;6.90;99.90
17639;DHT22;8938;53.546;9.954;2023-01-29T18:19:22;6.90;99.90